Address 0x5fefbc99dae2d06550c3dbdef85599c247d71836

Txn Hash Method
Block
From
To
Value [Txn Fee]
0x7c91ea89bfd2b7ed3a891ed3fbd416833cdc1b9b3f0c34151ec1745a5355ea63Swap Exact ETH F...59437932022-12-09 22:35:459 hrs 49 mins ago0x5fefbc99dae2d06550c3dbdef85599c247d71836OUT VVS Finance: Router6,839.17371 CRO0.7298449966830
0x2f3196d4b45e742b1b5802232321f9734d646f3ca86f188a9506f96cab3e537bSwap Exact Token...59437472022-12-09 22:31:229 hrs 53 mins ago0x5fefbc99dae2d06550c3dbdef85599c247d71836OUT VVS Finance: Router0 CRO0.7352723743360
0x6772f47848dc39751c05daefdccad56e20547a82903598171fa2e5bb684599cbZap Out57519432022-11-27 7:50:5313 days 33 mins ago0x5fefbc99dae2d06550c3dbdef85599c247d71836OUT 0x8d13982c702fe7c6537529986df67dabeafc4c190 CRO1.6954138330450
0xd39bdd34152dbe8863be16141afe01aa606e7fa418966ee360b98d65497139e2Approve57519432022-11-27 7:50:5313 days 33 mins ago0x5fefbc99dae2d06550c3dbdef85599c247d71836OUT 0xbf62c67ea509e86f07c8c69d0286c0636c50270b0 CRO0.2158912744480
0xc538c6ab14d45cb5a654c0f5592a8aeb8a828ac4b0b952094dcf677f99574318Withdraw57518702022-11-27 7:43:5413 days 40 mins ago0x5fefbc99dae2d06550c3dbdef85599c247d71836OUT VVS Finance: Craftsman0 CRO0.7158382385120
0x51afc1dbf3bc29ff14c3571bacd004cfd6f44da206a0b6e77425739667c14cb4Withdraw All55206142022-11-12 2:40:4328 days 5 hrs ago0x5fefbc99dae2d06550c3dbdef85599c247d71836OUT 0xc385c326133078be00cd32d3587c21934e29c2ab0 CRO3.2516370375530
0x1a16c02ce6dedabf371fb4dbd917d600e0f7a1926e09dea16d5423d6c5028b7cGet Reward55206042022-11-12 2:39:4728 days 5 hrs ago0x5fefbc99dae2d06550c3dbdef85599c247d71836OUT 0xc385c326133078be00cd32d3587c21934e29c2ab0 CRO3.5648185850970
0x81fc5483e07e24896b970b9c005875d5049dbeb306c2dbecf5f419c4f767c085Deposit55205792022-11-12 2:37:2628 days 5 hrs ago0x5fefbc99dae2d06550c3dbdef85599c247d71836OUT 0x990e9683e6ba5079cdb235838856029a50dad84c0 CRO1.141950
0x9aff7956669ce175f9f8e2ff91ce0023d3c6edb7d8a5ea173df2673d02a2e3bdDeposit55205762022-11-12 2:37:0928 days 5 hrs ago0x5fefbc99dae2d06550c3dbdef85599c247d71836OUT VVS Finance: Craftsman0 CRO0.7601250
0xb81d51a5551ce762872de953e4a338fa63f775f1cd59955cfdf82cf753f2db2aRemove Liquidity...22621642022-04-08 22:17:08245 days 10 hrs ago0x5fefbc99dae2d06550c3dbdef85599c247d71836OUT Mad Meerkat Finance: Master Meerkat & Router0 CRO1.2556150
0x3f0d0b8b42d9c19fb5c0d4eb2b80a0d6921bdd5712bfa2007a7c047929d8afb7Deposit22374612022-04-07 2:03:01247 days 6 hrs ago0x5fefbc99dae2d06550c3dbdef85599c247d71836OUT 0xc385c326133078be00cd32d3587c21934e29c2ab0 CRO1.0037050
0x04df50c072df49f00cdf8a421c76bc100564ff28b978f5d2244aac515670fe98Transfer22373822022-04-07 1:55:11247 days 6 hrs agoCrypto.com: CDC Withdrawal IN 0x5fefbc99dae2d06550c3dbdef85599c247d718361,999.8 CRO0.1050
0x7724d2fb5c700656158550160aebb852c2e5bb171588db9a16b482e990c9a8a0Deposit21861702022-04-03 7:53:58251 days 30 mins ago0x5fefbc99dae2d06550c3dbdef85599c247d71836OUT 0xc385c326133078be00cd32d3587c21934e29c2ab0 CRO2.0930650
0x8da2af20123332e141631a2fbb946e281f0f8a876d17b69e09abf3c6ba88e4d0Add Liquidity21861582022-04-03 7:52:32251 days 32 mins ago0x5fefbc99dae2d06550c3dbdef85599c247d71836OUT Mad Meerkat Finance: Master Meerkat & Router0 CRO1.148260
0xa5f04bfcc4c81fc72892cf8cfbb9cb3954f5ec3f1d9fff2a3e08f858f7f491fdApprove21861512022-04-03 7:51:50251 days 32 mins ago0x5fefbc99dae2d06550c3dbdef85599c247d71836OUT Mad Meerkat Finance: SVN Token0 CRO0.222150
0x0a176d61442078284896b5d73af67e7b5af6fdc795af3278926380bd57d8a2daApprove21736102022-04-02 9:48:37251 days 22 hrs ago0x5fefbc99dae2d06550c3dbdef85599c247d71836OUT 0xba452a1c0875d33a440259b1ea4dca8f5d86d9ae0 CRO0.221550
0x18208c6a9a10500b174cdca44c852547e0a7bb340737cc085ee9d86d4d71f619Add Liquidity ET...21735902022-04-02 9:46:36251 days 22 hrs ago0x5fefbc99dae2d06550c3dbdef85599c247d71836OUT Mad Meerkat Finance: Master Meerkat & Router15 CRO0.9184250
0x03f08b13b86dbde8cc6a6e25befc4c959007ead19afc03f0788218c3d4d6897aDeposit21727902022-04-02 8:26:36251 days 23 hrs ago0x5fefbc99dae2d06550c3dbdef85599c247d71836OUT 0x6be34986fdd1a91e4634eb6b9f8017439b7b5edc0 CRO0.8080250
0x051462ac7d5cfca7a11dd4fd8f4fd9b3e528e9e9231bc6d12179fbc51d2160c4Transfer21727802022-04-02 8:25:34251 days 23 hrs agoCrypto.com: CDC Withdrawal IN 0x5fefbc99dae2d06550c3dbdef85599c247d7183619.8 CRO0.1050
0x5d8030f19f1411a14fb62b09fb226478cb47616f22e4aa9e54e8e2381cb4c3ccAdd Liquidity ET...21725092022-04-02 7:58:41252 days 26 mins ago0x5fefbc99dae2d06550c3dbdef85599c247d71836OUT Mad Meerkat Finance: Master Meerkat & Router62 CRO1.1074750
0x7ba69a7f2d704c89e0f73f423bfe81a1604579b529e30ce19448a933d5b37763Approve21725052022-04-02 7:58:18252 days 26 mins ago0x5fefbc99dae2d06550c3dbdef85599c247d71836OUT Mad Meerkat Finance: MMF Token0 CRO0.222260
0x1ccbe383a5c18516e5465c5b31ab812fabed718123c223eb20f8dc8f46a34301Approve21724292022-04-02 7:50:41252 days 34 mins ago0x5fefbc99dae2d06550c3dbdef85599c247d71836OUT 0xba452a1c0875d33a440259b1ea4dca8f5d86d9ae0 CRO0.221550
0xf5cf7cf26d8c47b9e9cdb0b2ac2c222a9eb32d75983ac668fd197553e2326bcfSwap Exact ETH F...21722312022-04-02 7:30:55252 days 53 mins ago0x5fefbc99dae2d06550c3dbdef85599c247d71836OUT Mad Meerkat Finance: Master Meerkat & Router197.183556218303232 CRO0.773590
0x8ca0684b15ffdb4091552c2a00899f7c66da3a5b38159662cfc401ffa1c948aaTransfer*21721462022-04-02 7:22:17252 days 1 hr ago0x5fefbc99dae2d06550c3dbdef85599c247d71836OUT0xb6e1705bfafcf1efee83c135c0f0210653bab8f00 CRO0.221490
0xbd2fe9e0aa8b60c54f4dd7f3aa6be2fcfa202d32200f6e49fc4f9901b815df91Swap Exact ETH F...21721302022-04-02 7:20:33252 days 1 hr ago0x5fefbc99dae2d06550c3dbdef85599c247d71836OUT Mad Meerkat Finance: Master Meerkat & Router792.823944873212931 CRO1.141750
[ Download CSV Export 
Latest 7 internal transactions
Parent Txn Hash Block From To Value
0x2f3196d4b45e742b1b5802232321f9734d646f3ca86f188a9506f96cab3e537b59437472022-12-09 22:31:229 hrs 53 mins ago VVS Finance: Router0x5fefbc99dae2d06550c3dbdef85599c247d718361,886.064518533010501081 CRO
0x6772f47848dc39751c05daefdccad56e20547a82903598171fa2e5bb684599cb57519432022-11-27 7:50:5313 days 33 mins ago 0x8d13982c702fe7c6537529986df67dabeafc4c190x5fefbc99dae2d06550c3dbdef85599c247d718362,954.504800849481769352 CRO
0xb81d51a5551ce762872de953e4a338fa63f775f1cd59955cfdf82cf753f2db2a22621642022-04-08 22:17:08245 days 10 hrs ago Mad Meerkat Finance: Master Meerkat & Router0x5fefbc99dae2d06550c3dbdef85599c247d7183615.382749211669733183 CRO
0x5d8030f19f1411a14fb62b09fb226478cb47616f22e4aa9e54e8e2381cb4c3cc21725092022-04-02 7:58:41252 days 26 mins ago Mad Meerkat Finance: Master Meerkat & Router0x5fefbc99dae2d06550c3dbdef85599c247d718360.000010131812375225 CRO
0x97f0b13f5835513c8d7f00788e11c82bbc8daa06e4c24b27c778324749f5370d21720352022-04-02 7:10:53252 days 1 hr ago VVS Finance: Router0x5fefbc99dae2d06550c3dbdef85599c247d718361,052.973348667123760254 CRO
0x08637eaa39b9cce82e5c6bec150c710134cc8ef5a2324c630a882d29d518ef9221422822022-03-31 5:17:17254 days 3 hrs ago VVS Finance: Router0x5fefbc99dae2d06550c3dbdef85599c247d718361 basecro
0xbb6b997e36f22adee2e514acc2414956adaee3e5180789791cd00d9558cf49d320405462022-03-24 5:13:16261 days 3 hrs ago VVS Finance: Router0x5fefbc99dae2d06550c3dbdef85599c247d718360.002397447303848809 CRO
[ Download CSV Export 
Loading

Contract Name:
0

Compiler Version
0

Optimization Enabled:
0

Other Settings:
-NA-
Block Transaction Gas Used Reward
Age Block Fee Address BC Fee Address Voting Power Jailed Incoming
Block Uncle Number Difficulty Gas Used Reward
Loading
Make sure to use the "Vote Down" button for any spammy posts, and the "Vote Up" for interesting conversations.